Time;durP1;ratioP1;P1;durP2;ratioP2;P2;SDS_P1;SDS_P2;PMS_P1;PMS_P2;Temp;Humidity;BMP_temperature;BMP_pressure;BME280_temperature;BME280_humidity;BME280_pressure;Samples;Min_cycle;Max_cycle;Signal;HPM_P1;HPM_P2
2023/09/28 00:00:39;;;;;;;2.45;1.35;;;21.10;73.60;;;;;;5023849;28;20069;-66
2023/09/28 00:03:09;;;;;;;1.75;1.15;;;21.10;73.50;;;;;;5008842;28;20095;-66
2023/09/28 00:05:35;;;;;;;2.40;1.17;;;21.00;73.50;;;;;;5024490;28;20045;-66
2023/09/28 00:08:02;;;;;;;1.70;1.42;;;21.00;73.40;;;;;;5027263;28;20064;-66
2023/09/28 00:10:28;;;;;;;1.23;1.13;;;21.00;73.30;;;;;;5028034;28;20040;-66
2023/09/28 00:12:54;;;;;;;1.77;1.30;;;21.00;73.20;;;;;;5028950;28;20033;-66
2023/09/28 00:15:21;;;;;;;0.68;0.68;;;21.00;73.10;;;;;;5029542;28;20030;-65
2023/09/28 00:17:51;;;;;;;1.67;1.10;;;21.00;73.10;;;;;;5029805;28;20396;-66
2023/09/28 00:20:18;;;;;;;1.65;1.38;;;21.00;73.10;;;;;;5023084;28;20469;-66
2023/09/28 00:22:48;;;;;;;1.45;1.30;;;21.00;73.10;;;;;;5028888;28;20508;-66
2023/09/28 00:25:16;;;;;;;1.52;1.42;;;21.00;73.10;;;;;;5030148;28;20032;-66
2023/09/28 00:27:47;;;;;;;1.95;1.17;;;21.00;73.20;;;;;;5028662;28;20030;-66
2023/09/28 00:30:20;;;;;;;1.63;1.30;;;20.90;73.20;;;;;;5029171;28;20116;-66
2023/09/28 00:32:47;;;;;;;1.13;0.90;;;20.90;73.30;;;;;;5027674;28;20037;-65
2023/09/28 00:35:13;;;;;;;1.35;1.25;;;20.80;73.30;;;;;;5029278;28;20021;-65
2023/09/28 00:37:39;;;;;;;1.45;1.33;;;20.70;73.50;;;;;;5025238;28;20366;-66
2023/09/28 00:40:23;;;;;;;1.42;1.00;;;20.70;73.70;;;;;;5036149;28;20596;-66
2023/09/28 00:42:50;;;;;;;1.55;1.00;;;20.60;73.70;;;;;;5042739;28;20037;-65
2023/09/28 00:45:16;;;;;;;2.53;1.17;;;20.60;73.90;;;;;;5045865;28;20398;-66
2023/09/28 00:47:45;;;;;;;2.35;1.55;;;20.50;73.90;;;;;;5041894;28;20374;-66
2023/09/28 00:50:14;;;;;;;1.48;1.20;;;20.50;74.00;;;;;;5047352;28;20029;-65
2023/09/28 00:52:46;;;;;;;1.20;1.10;;;20.40;74.10;;;;;;5044672;28;20033;-66
2023/09/28 00:55:15;;;;;;;1.27;1.10;;;20.40;74.10;;;;;;5047198;28;20364;-66
2023/09/28 00:57:46;;;;;;;1.48;0.90;;;20.30;74.10;;;;;;5045083;28;20071;-65
2023/09/28 01:00:21;;;;;;;1.77;1.17;;;20.30;74.20;;;;;;5039863;28;20029;-65
2023/09/28 01:02:52;;;;;;;1.95;1.25;;;20.20;74.30;;;;;;5044452;28;20091;-66
2023/09/28 01:05:25;;;;;;;1.40;1.17;;;20.20;74.50;;;;;;5047637;28;20143;-66
2023/09/28 01:07:51;;;;;;;1.67;1.27;;;20.10;74.50;;;;;;5048935;28;20029;-66
2023/09/28 01:10:23;;;;;;;1.35;1.20;;;20.10;74.60;;;;;;5048739;28;20043;-65
2023/09/28 01:12:49;;;;;;;1.48;1.17;;;20.00;74.70;;;;;;5050688;28;20072;-66
2023/09/28 01:15:16;;;;;;;2.28;1.00;;;20.00;74.80;;;;;;5048566;28;20427;-66
2023/09/28 01:17:42;;;;;;;1.05;0.93;;;19.90;74.90;;;;;;5051068;28;20104;-65
2023/09/28 01:20:16;;;;;;;1.85;1.35;;;19.90;75.00;;;;;;5048886;28;20115;-66
2023/09/28 01:22:42;;;;;;;1.00;1.00;;;19.80;75.10;;;;;;5049024;28;20025;-66
2023/09/28 01:25:09;;;;;;;1.10;1.00;;;19.80;75.10;;;;;;5047049;28;20033;-66
2023/09/28 01:27:35;;;;;;;0.90;0.90;;;19.80;75.20;;;;;;5051897;28;20045;-65
2023/09/28 01:30:03;;;;;;;1.17;1.00;;;19.70;75.20;;;;;;5049887;28;20116;-65
2023/09/28 01:32:29;;;;;;;1.52;1.30;;;19.70;75.30;;;;;;5045593;28;20464;-65
2023/09/28 01:34:55;;;;;;;1.33;1.23;;;19.60;75.50;;;;;;5049339;28;20035;-65
2023/09/28 01:37:29;;;;;;;3.42;1.73;;;19.60;75.60;;;;;;5047768;28;20104;-65
2023/09/28 01:39:55;;;;;;;1.00;0.93;;;19.60;75.70;;;;;;5059590;28;20119;-66
2023/09/28 01:42:21;;;;;;;1.70;1.40;;;19.50;75.80;;;;;;5069467;28;20045;-66
2023/09/28 01:44:47;;;;;;;0.95;0.85;;;19.50;75.80;;;;;;5067182;28;20084;-66
2023/09/28 01:47:13;;;;;;;1.70;1.23;;;19.50;75.80;;;;;;5071118;28;20032;-66
2023/09/28 01:49:38;;;;;;;2.22;1.38;;;19.50;75.90;;;;;;5065399;28;20495;-66
2023/09/28 01:52:04;;;;;;;2.95;1.40;;;19.50;75.90;;;;;;5068448;28;20039;-66
2023/09/28 01:54:29;;;;;;;1.98;1.38;;;19.50;76.00;;;;;;5064200;28;20029;-66
2023/09/28 01:56:55;;;;;;;1.15;1.05;;;19.50;76.00;;;;;;5064951;28;20040;-66
2023/09/28 01:59:21;;;;;;;1.20;1.10;;;19.40;76.00;;;;;;5067943;28;20508;-65
2023/09/28 02:01:46;;;;;;;1.73;1.50;;;19.40;76.00;;;;;;5048152;28;20621;-66
2023/09/28 02:04:12;;;;;;;1.38;1.10;;;19.40;75.90;;;;;;5063191;28;20494;-66
2023/09/28 02:06:38;;;;;;;1.13;1.00;;;19.40;76.00;;;;;;5069107;28;20229;-66
2023/09/28 02:09:05;;;;;;;1.42;1.33;;;19.40;76.10;;;;;;5062627;28;20029;-65
2023/09/28 02:11:31;;;;;;;1.63;1.13;;;19.40;76.20;;;;;;5063568;28;20037;-66
2023/09/28 02:13:56;;;;;;;0.98;0.98;;;19.30;76.20;;;;;;5065743;28;20027;-65
2023/09/28 02:16:22;;;;;;;1.85;1.20;;;19.30;76.20;;;;;;5069502;28;20076;-66
2023/09/28 02:18:48;;;;;;;1.85;1.38;;;19.30;76.20;;;;;;5067029;28;20143;-65
2023/09/28 02:21:14;;;;;;;0.80;0.80;;;19.30;76.20;;;;;;5068557;28;20024;-66
2023/09/28 02:23:41;;;;;;;0.80;0.80;;;19.30;76.20;;;;;;5065088;28;20303;-65
2023/09/28 02:26:07;;;;;;;0.82;0.82;;;19.30;76.20;;;;;;5068212;28;20039;-66
2023/09/28 02:28:33;;;;;;;2.97;1.20;;;19.20;76.30;;;;;;5068865;28;20491;-65
2023/09/28 02:31:06;;;;;;;1.35;1.10;;;19.20;76.70;;;;;;5067961;28;20056;-66
2023/09/28 02:33:33;;;;;;;1.30;1.20;;;19.10;76.50;;;;;;5070547;28;20456;-66
2023/09/28 02:35:58;;;;;;;1.50;1.20;;;19.00;76.60;;;;;;5066267;28;20406;-65
2023/09/28 02:38:24;;;;;;;1.27;1.17;;;19.00;76.80;;;;;;5062017;28;20086;-66
2023/09/28 02:40:50;;;;;;;1.88;1.40;;;19.00;76.90;;;;;;5065544;28;20049;-66
2023/09/28 02:43:15;;;;;;;1.52;1.08;;;19.00;76.80;;;;;;5069794;28;20103;-65
2023/09/28 02:45:42;;;;;;;1.65;1.25;;;19.00;76.80;;;;;;5067113;28;20033;-65
2023/09/28 02:48:08;;;;;;;2.30;1.27;;;19.00;76.80;;;;;;5065972;28;20028;-66
2023/09/28 02:50:34;;;;;;;1.10;1.00;;;19.00;76.80;;;;;;5049602;28;20040;-65
2023/09/28 02:53:00;;;;;;;1.15;1.00;;;18.90;76.80;;;;;;5068521;28;20028;-66
2023/09/28 02:55:26;;;;;;;2.58;1.27;;;18.90;76.80;;;;;;5064913;28;20475;-65
2023/09/28 02:57:51;;;;;;;1.33;1.00;;;18.90;77.00;;;;;;5068885;28;20036;-65
2023/09/28 03:02:53;;;;;;;1.73;1.38;;;18.80;77.20;;;;;;5069231;28;20056;-66
2023/09/28 03:05:21;;;;;;;2.80;1.30;;;18.80;77.20;;;;;;5051738;28;20029;-66
2023/09/28 03:07:47;;;;;;;1.60;1.50;;;18.80;77.30;;;;;;5068783;28;20115;-66
2023/09/28 03:10:13;;;;;;;1.25;1.15;;;18.80;77.30;;;;;;5061456;28;20443;-66
2023/09/28 03:12:39;;;;;;;1.08;0.90;;;18.80;77.30;;;;;;5051076;28;20541;-66
2023/09/28 03:15:11;;;;;;;1.60;1.23;;;18.70;77.20;;;;;;5069669;28;20071;-66
2023/09/28 03:17:39;;;;;;;2.90;1.42;;;18.70;77.30;;;;;;5068223;28;20029;-66
2023/09/28 03:20:17;;;;;;;1.77;1.08;;;18.70;78.00;;;;;;5069238;28;20027;-67
2023/09/28 03:22:44;;;;;;;0.80;0.80;;;18.70;77.30;;;;;;5067259;28;20463;-66
2023/09/28 03:25:16;;;;;;;1.20;0.80;;;18.70;77.30;;;;;;5065620;28;20219;-66
2023/09/28 03:27:42;;;;;;;1.58;1.23;;;18.70;77.30;;;;;;5068992;28;20037;-66
2023/09/28 03:30:10;;;;;;;2.35;1.20;;;18.60;77.20;;;;;;5068296;28;20032;-66
2023/09/28 03:32:37;;;;;;;1.55;1.27;;;18.60;77.30;;;;;;5068696;28;20665;-66
2023/09/28 03:35:13;;;;;;;0.80;0.80;;;18.60;77.30;;;;;;5064866;28;20383;-66
2023/09/28 03:37:40;;;;;;;1.30;1.10;;;18.60;77.20;;;;;;5067936;28;20660;-66
2023/09/28 03:40:12;;;;;;;1.48;1.23;;;18.60;77.20;;;;;;5066108;28;20037;-66
2023/09/28 03:42:40;;;;;;;1.63;1.00;;;18.60;77.30;;;;;;5067509;28;20028;-66
2023/09/28 03:45:09;;;;;;;2.22;1.23;;;18.60;77.30;;;;;;5065934;28;20020;-66
2023/09/28 03:47:39;;;;;;;1.50;1.17;;;18.60;77.40;;;;;;5068176;28;20680;-66
2023/09/28 03:50:07;;;;;;;2.17;1.13;;;18.50;77.40;;;;;;5066269;28;20052;-66
2023/09/28 03:52:34;;;;;;;1.45;1.35;;;18.50;77.50;;;;;;5065990;28;20051;-66
2023/09/28 03:55:00;;;;;;;3.75;1.17;;;18.50;77.50;;;;;;5049324;28;20525;-66
2023/09/28 03:57:26;;;;;;;1.50;1.40;;;18.50;77.50;;;;;;5066843;28;20024;-66
2023/09/28 03:59:52;;;;;;;3.28;1.08;;;18.50;77.50;;;;;;5068195;28;20032;-66
2023/09/28 04:02:17;;;;;;;1.35;1.25;;;18.40;77.50;;;;;;5065812;28;20039;-66
2023/09/28 04:04:43;;;;;;;3.67;1.10;;;18.40;77.60;;;;;;5058873;28;20471;-66
2023/09/28 04:07:09;;;;;;;1.55;1.23;;;18.40;77.70;;;;;;5067764;28;20037;-66
2023/09/28 04:09:35;;;;;;;1.02;0.90;;;18.30;77.70;;;;;;5063450;28;20360;-66
2023/09/28 04:12:01;;;;;;;1.30;0.95;;;18.30;77.90;;;;;;5060948;28;20034;-66
2023/09/28 04:14:27;;;;;;;2.20;0.95;;;18.30;78.00;;;;;;5060863;28;20037;-66
2023/09/28 04:16:54;;;;;;;4.00;1.35;;;18.30;78.10;;;;;;5064801;28;20025;-67
2023/09/28 04:19:19;;;;;;;2.78;1.20;;;18.30;78.10;;;;;;5065623;28;20143;-66
2023/09/28 04:21:45;;;;;;;2.00;1.13;;;18.30;78.20;;;;;;5065283;28;20119;-66
2023/09/28 04:24:11;;;;;;;2.83;1.17;;;18.30;78.30;;;;;;5046729;28;20476;-66
2023/09/28 04:26:37;;;;;;;2.75;1.15;;;18.30;78.30;;;;;;5062456;28;20036;-67
2023/09/28 04:29:09;;;;;;;3.05;1.38;;;18.20;78.20;;;;;;5064274;28;20107;-66
2023/09/28 04:31:34;;;;;;;1.45;1.02;;;18.20;78.30;;;;;;5046221;28;20372;-67
2023/09/28 04:34:00;;;;;;;1.80;1.00;;;18.20;78.30;;;;;;5066214;28;20031;-66
2023/09/28 04:36:26;;;;;;;2.25;1.00;;;18.20;78.30;;;;;;5063778;28;20025;-66
2023/09/28 04:38:52;;;;;;;2.08;1.50;;;18.20;78.30;;;;;;5067686;28;20391;-66
2023/09/28 04:41:17;;;;;;;2.00;1.25;;;18.20;78.40;;;;;;5045863;28;20044;-66
2023/09/28 04:43:43;;;;;;;1.65;1.23;;;18.10;78.40;;;;;;5067834;28;20045;-66
2023/09/28 04:46:09;;;;;;;1.55;1.33;;;18.10;78.50;;;;;;5060794;28;20479;-66
2023/09/28 04:48:35;;;;;;;1.30;1.20;;;18.10;78.60;;;;;;5067487;28;20036;-66
2023/09/28 04:51:00;;;;;;;1.23;1.10;;;18.10;78.60;;;;;;5063277;28;20382;-66
2023/09/28 04:53:26;;;;;;;1.52;0.93;;;18.10;78.90;;;;;;5067836;28;20032;-66
2023/09/28 04:55:52;;;;;;;1.98;1.00;;;18.00;78.50;;;;;;5049535;28;20430;-66
2023/09/28 04:58:18;;;;;;;1.73;1.20;;;18.00;78.60;;;;;;5049951;28;20056;-65
2023/09/28 05:00:44;;;;;;;1.33;1.08;;;18.00;78.70;;;;;;5060963;28;20699;-66
2023/09/28 05:03:11;;;;;;;1.40;1.08;;;18.00;78.70;;;;;;5046661;28;20093;-66
2023/09/28 05:05:37;;;;;;;1.17;0.88;;;18.00;78.60;;;;;;5064790;28;20033;-66
2023/09/28 05:08:02;;;;;;;1.67;1.33;;;18.00;78.70;;;;;;5061744;28;20078;-66
2023/09/28 05:10:28;;;;;;;1.42;1.30;;;18.00;79.20;;;;;;5039278;28;20364;-67
2023/09/28 05:12:54;;;;;;;1.42;1.10;;;18.00;78.70;;;;;;5067552;28;20036;-66
2023/09/28 05:15:20;;;;;;;1.45;1.20;;;17.90;78.70;;;;;;5049626;28;20032;-67
2023/09/28 05:17:47;;;;;;;1.52;1.10;;;17.90;78.80;;;;;;5061342;28;20032;-67
2023/09/28 05:20:13;;;;;;;2.03;1.08;;;17.90;78.80;;;;;;5043082;28;20060;-67
2023/09/28 05:22:38;;;;;;;1.35;1.15;;;17.90;78.80;;;;;;5060446;28;20055;-67
2023/09/28 05:25:06;;;;;;;1.42;1.33;;;17.90;78.80;;;;;;5057824;28;20082;-66
2023/09/28 05:27:33;;;;;;;1.63;1.25;;;17.90;78.80;;;;;;5039308;28;20025;-67
2023/09/28 05:29:59;;;;;;;3.67;1.38;;;17.80;78.90;;;;;;5044275;28;20064;-66
2023/09/28 05:32:24;;;;;;;1.17;1.00;;;17.80;79.00;;;;;;5041343;28;20033;-67
2023/09/28 05:34:50;;;;;;;1.63;1.00;;;17.80;79.00;;;;;;5067482;28;20436;-66
2023/09/28 05:37:16;;;;;;;2.08;1.50;;;17.80;79.10;;;;;;5060303;28;20107;-67
2023/09/28 05:39:41;;;;;;;2.78;1.95;;;17.80;79.20;;;;;;5064800;28;20044;-66
2023/09/28 05:42:07;;;;;;;2.08;1.10;;;17.80;79.20;;;;;;5063732;28;20040;-66
2023/09/28 05:44:33;;;;;;;2.20;1.52;;;17.80;79.20;;;;;;5061949;28;20032;-67
2023/09/28 05:46:59;;;;;;;3.05;1.98;;;17.80;79.20;;;;;;5065510;28;20384;-67
2023/09/28 05:49:26;;;;;;;1.75;1.23;;;17.90;79.10;;;;;;5066647;28;20040;-66
2023/09/28 05:51:52;;;;;;;1.92;1.33;;;17.90;79.10;;;;;;5070722;28;20119;-67
2023/09/28 05:54:18;;;;;;;2.45;1.48;;;18.00;79.10;;;;;;5067504;28;20131;-66
2023/09/28 05:56:44;;;;;;;1.30;1.00;;;18.00;79.10;;;;;;5068994;28;20097;-67
2023/09/28 05:59:10;;;;;;;1.70;1.13;;;18.00;79.20;;;;;;5068974;28;20468;-66
2023/09/28 06:01:39;;;;;;;1.58;1.25;;;18.10;79.30;;;;;;5067620;28;20021;-66
2023/09/28 06:04:05;;;;;;;3.05;1.65;;;18.10;79.30;;;;;;5070912;28;20024;-66
2023/09/28 06:06:31;;;;;;;2.80;2.00;;;18.20;79.30;;;;;;5068023;28;20017;-65
2023/09/28 06:08:57;;;;;;;2.08;1.88;;;18.20;80.10;;;;;;5069105;28;20077;-66
2023/09/28 06:11:23;;;;;;;2.72;1.35;;;18.30;80.30;;;;;;5067325;28;20439;-65
2023/09/28 06:13:49;;;;;;;1.80;1.15;;;18.30;80.20;;;;;;5066480;28;20375;-65
2023/09/28 06:16:15;;;;;;;2.78;2.13;;;18.40;80.00;;;;;;5070079;28;20029;-65
2023/09/28 06:18:42;;;;;;;2.08;1.30;;;18.40;80.30;;;;;;5062258;28;20448;-65
2023/09/28 06:21:08;;;;;;;3.83;1.90;;;18.50;80.30;;;;;;5065589;28;20606;-65
2023/09/28 06:23:35;;;;;;;1.95;1.38;;;18.50;81.50;;;;;;5061803;28;20276;-66
2023/09/28 06:26:01;;;;;;;3.35;2.25;;;18.50;80.90;;;;;;5069233;28;20021;-66
2023/09/28 06:28:27;;;;;;;3.53;2.28;;;18.50;81.20;;;;;;5069352;28;20068;-65
2023/09/28 06:30:53;;;;;;;4.38;1.90;;;18.50;81.20;;;;;;5053311;28;20364;-65
2023/09/28 06:33:22;;;;;;;4.47;1.80;;;18.50;81.00;;;;;;5061199;28;20032;-65
2023/09/28 06:35:48;;;;;;;2.30;1.67;;;18.50;81.40;;;;;;5069913;28;20047;-65
2023/09/28 06:38:14;;;;;;;3.13;2.08;;;18.50;81.20;;;;;;5069514;28;20033;-65
2023/09/28 06:40:43;;;;;;;6.63;2.25;;;18.60;81.30;;;;;;5056995;28;20037;-65
2023/09/28 06:43:09;;;;;;;2.45;1.83;;;18.60;81.20;;;;;;5068473;28;20032;-67
2023/09/28 06:45:35;;;;;;;3.58;2.25;;;18.70;81.20;;;;;;5068072;28;20028;-66
2023/09/28 06:48:01;;;;;;;2.53;1.92;;;18.70;81.20;;;;;;5051576;28;20032;-65
2023/09/28 06:50:27;;;;;;;2.58;1.63;;;18.70;81.10;;;;;;5065855;28;20055;-65
2023/09/28 06:52:53;;;;;;;2.13;1.48;;;18.70;80.90;;;;;;5070019;28;20491;-65
2023/09/28 06:55:19;;;;;;;3.28;1.98;;;18.80;80.80;;;;;;5069697;28;20028;-66
2023/09/28 06:57:46;;;;;;;4.97;1.80;;;18.80;80.70;;;;;;5060941;28;20032;-65
2023/09/28 07:00:16;;;;;;;2.63;1.80;;;18.90;80.70;;;;;;5063403;28;20025;-65
2023/09/28 07:02:47;;;;;;;5.93;1.88;;;18.90;80.70;;;;;;5063783;28;20037;-66
2023/09/28 07:05:16;;;;;;;2.63;1.40;;;18.90;80.50;;;;;;5065012;28;20031;-65
2023/09/28 07:07:43;;;;;;;1.95;1.40;;;18.90;81.00;;;;;;5048561;28;20036;-66
2023/09/28 07:10:12;;;;;;;4.32;2.30;;;18.90;80.30;;;;;;5062090;28;20043;-66
2023/09/28 07:12:38;;;;;;;3.95;2.15;;;19.00;80.30;;;;;;5055706;28;20036;-66
2023/09/28 07:15:04;;;;;;;3.92;2.25;;;19.00;80.00;;;;;;5069339;28;20028;-66
2023/09/28 07:17:30;;;;;;;4.80;2.17;;;19.00;79.80;;;;;;5068199;28;20036;-65
2023/09/28 07:19:56;;;;;;;5.40;1.70;;;19.10;79.60;;;;;;5066539;28;20097;-66
2023/09/28 07:22:22;;;;;;;3.55;1.90;;;19.10;79.40;;;;;;5063070;28;20475;-66
2023/09/28 07:24:48;;;;;;;7.65;2.08;;;19.10;79.20;;;;;;5062451;28;20040;-65
2023/09/28 07:27:14;;;;;;;3.47;1.65;;;19.10;79.00;;;;;;5064218;28;20028;-66
2023/09/28 07:29:39;;;;;;;4.65;1.33;;;19.20;78.60;;;;;;5058334;28;20498;-66
2023/09/28 07:32:08;;;;;;;5.90;1.83;;;19.20;78.60;;;;;;5065062;28;20544;-66
2023/09/28 07:34:34;;;;;;;3.80;1.33;;;19.20;78.40;;;;;;5065796;28;20029;-66
2023/09/28 07:37:00;;;;;;;7.75;1.08;;;19.20;77.80;;;;;;5056920;28;20525;-66
2023/09/28 07:39:25;;;;;;;6.70;2.10;;;19.20;77.80;;;;;;5065325;28;20025;-65
2023/09/28 07:41:51;;;;;;;2.45;1.65;;;19.30;77.80;;;;;;5061643;28;20024;-65
2023/09/28 07:44:19;;;;;;;6.47;1.45;;;19.30;77.50;;;;;;5068476;28;20044;-65
2023/09/28 07:46:45;;;;;;;4.78;1.85;;;19.30;77.50;;;;;;5063001;28;20483;-65
2023/09/28 07:49:12;;;;;;;2.88;1.48;;;19.40;77.20;;;;;;5062766;28;20105;-65
2023/09/28 07:51:39;;;;;;;10.45;2.33;;;19.50;77.00;;;;;;5065854;28;20248;-65
2023/09/28 07:54:05;;;;;;;4.43;1.67;;;19.50;76.90;;;;;;5067886;28;20025;-67
2023/09/28 07:56:31;;;;;;;8.90;2.05;;;19.60;76.60;;;;;;5065832;28;20482;-65
2023/09/28 07:58:57;;;;;;;5.32;1.90;;;19.60;75.90;;;;;;5058090;28;20029;-66
2023/09/28 08:01:25;;;;;;;3.70;1.55;;;19.60;75.80;;;;;;5042603;28;20037;-65
2023/09/28 08:03:51;;;;;;;8.15;2.20;;;19.70;75.70;;;;;;5042012;28;20033;-66
2023/09/28 08:06:17;;;;;;;10.75;1.85;;;19.70;75.60;;;;;;5064938;28;20028;-65
2023/09/28 08:08:42;;;;;;;8.98;2.95;;;19.80;75.60;;;;;;5044922;28;20390;-67
2023/09/28 08:11:08;;;;;;;4.60;2.03;;;19.90;75.10;;;;;;5066699;28;20029;-66
2023/09/28 08:13:34;;;;;;;5.10;2.08;;;19.90;75.00;;;;;;5068714;28;20029;-64
2023/09/28 08:16:00;;;;;;;6.07;2.10;;;20.00;74.60;;;;;;5064055;28;20445;-64
2023/09/28 08:18:26;;;;;;;4.38;1.83;;;20.00;74.50;;;;;;5065599;28;20029;-64
2023/09/28 08:20:51;;;;;;;4.43;1.25;;;20.00;74.40;;;;;;5065791;28;20475;-65
2023/09/28 08:23:18;;;;;;;3.95;1.20;;;20.00;74.40;;;;;;5065410;28;20063;-66
2023/09/28 08:25:44;;;;;;;5.90;2.03;;;20.10;74.20;;;;;;5065664;28;20041;-65
2023/09/28 08:28:10;;;;;;;3.28;1.05;;;20.10;74.10;;;;;;5064243;28;20078;-66
2023/09/28 08:30:35;;;;;;;4.35;1.60;;;20.20;74.00;;;;;;5064762;28;20061;-66
2023/09/28 08:33:01;;;;;;;2.78;1.17;;;20.30;73.80;;;;;;5051981;28;20079;-65
2023/09/28 08:35:27;;;;;;;4.20;1.92;;;20.30;73.70;;;;;;5062083;28;20078;-65
2023/09/28 08:37:52;;;;;;;2.50;1.15;;;20.40;72.80;;;;;;5048644;28;20035;-66
2023/09/28 08:40:18;;;;;;;5.30;1.30;;;20.40;72.60;;;;;;5059946;28;20049;-66
2023/09/28 08:42:45;;;;;;;10.25;2.50;;;20.40;72.00;;;;;;5064315;28;20364;-66
2023/09/28 08:45:14;;;;;;;2.33;0.85;;;20.50;72.20;;;;;;5066434;28;20039;-67
2023/09/28 08:47:48;;;;;;;4.68;1.83;;;20.60;72.30;;;;;;5051013;28;20080;-65
2023/09/28 08:50:20;;;;;;;6.78;1.50;;;20.70;71.40;;;;;;5057858;28;20024;-66
2023/09/28 08:52:46;;;;;;;14.50;3.33;;;20.80;71.10;;;;;;5048845;28;20115;-65
2023/09/28 08:55:12;;;;;;;4.30;1.88;;;20.80;70.70;;;;;;5059760;28;20116;-65
2023/09/28 08:57:40;;;;;;;6.45;2.33;;;20.90;70.10;;;;;;5042635;28;20120;-66
2023/09/28 09:00:13;;;;;;;4.65;1.58;;;21.00;70.00;;;;;;5064011;28;20028;-65
2023/09/28 09:02:43;;;;;;;11.15;1.38;;;21.10;69.70;;;;;;5064348;28;20040;-66
2023/09/28 09:05:12;;;;;;;5.45;1.67;;;21.00;69.90;;;;;;5056821;28;20563;-65
2023/09/28 09:07:39;;;;;;;5.93;1.77;;;21.10;69.30;;;;;;5056010;28;20033;-66
2023/09/28 09:10:06;;;;;;;4.68;2.17;;;21.00;68.90;;;;;;5054530;28;20032;-66
2023/09/28 09:12:34;;;;;;;4.05;1.63;;;21.10;69.20;;;;;;5065582;28;20052;-66
2023/09/28 09:15:00;;;;;;;8.43;2.13;;;21.10;68.60;;;;;;5061616;28;20442;-66
2023/09/28 09:17:35;;;;;;;2.30;1.38;;;21.10;68.70;;;;;;5062133;28;20027;-66
2023/09/28 09:20:02;;;;;;;7.45;2.22;;;21.20;68.70;;;;;;5064983;28;21000;-66
2023/09/28 09:22:29;;;;;;;7.10;1.88;;;21.20;68.10;;;;;;5065799;28;20452;-67
2023/09/28 09:24:56;;;;;;;2.78;1.65;;;21.20;67.90;;;;;;5056131;28;20074;-67
2023/09/28 09:27:27;;;;;;;9.98;2.65;;;21.20;68.10;;;;;;5045887;28;20316;-66
2023/09/28 09:30:08;;;;;;;7.22;2.22;;;21.20;67.90;;;;;;5064507;28;20498;-66
2023/09/28 09:32:35;;;;;;;8.70;2.63;;;21.30;67.50;;;;;;5050154;28;20032;-66
2023/09/28 09:35:02;;;;;;;5.53;1.98;;;21.20;66.80;;;;;;5067006;28;20304;-65
2023/09/28 09:37:27;;;;;;;10.45;3.22;;;21.20;66.90;;;;;;5062447;28;20059;-65
2023/09/28 09:40:10;;;;;;;4.30;2.08;;;21.40;66.10;;;;;;5058670;28;20040;-65
2023/09/28 09:42:36;;;;;;;7.63;1.92;;;21.50;66.10;;;;;;5042876;28;20033;-65
2023/09/28 09:45:03;;;;;;;6.57;2.05;;;21.60;66.00;;;;;;5054995;28;20441;-66
2023/09/28 09:47:29;;;;;;;3.75;1.50;;;21.70;65.70;;;;;;5068721;28;20025;-66
2023/09/28 09:49:56;;;;;;;5.07;2.15;;;21.90;65.70;;;;;;5065710;28;20040;-66
2023/09/28 09:52:26;;;;;;;7.90;2.83;;;22.20;65.10;;;;;;5063647;28;20071;-66
2023/09/28 09:54:51;;;;;;;4.68;0.95;;;22.30;64.50;;;;;;5063657;28;20033;-66
2023/09/28 09:57:20;;;;;;;7.20;1.67;;;22.40;64.60;;;;;;5065377;28;20029;-66
2023/09/28 09:59:49;;;;;;;16.17;1.95;;;22.30;64.30;;;;;;5067579;28;20032;-66
2023/09/28 10:02:28;;;;;;;4.93;2.47;;;22.10;64.70;;;;;;5064590;28;20033;-66
2023/09/28 10:04:55;;;;;;;2.45;1.00;;;22.20;65.20;;;;;;5059314;28;20507;-66
2023/09/28 10:07:32;;;;;;;4.32;1.42;;;22.30;64.70;;;;;;5068446;28;20045;-66
2023/09/28 10:09:58;;;;;;;4.53;1.95;;;22.60;64.80;;;;;;5061835;28;20040;-66
2023/09/28 10:12:27;;;;;;;7.25;2.25;;;22.80;64.30;;;;;;5059422;28;20075;-66
2023/09/28 10:14:56;;;;;;;4.43;1.75;;;23.00;63.20;;;;;;5057231;28;20029;-66
2023/09/28 10:17:24;;;;;;;7.82;2.30;;;23.10;62.70;;;;;;5063641;28;20024;-66
2023/09/28 10:19:52;;;;;;;3.15;1.88;;;23.20;61.20;;;;;;5044939;28;20478;-66
2023/09/28 10:22:18;;;;;;;9.07;1.73;;;23.30;61.80;;;;;;5067249;28;20032;-66
2023/09/28 10:24:44;;;;;;;6.78;1.65;;;23.40;62.00;;;;;;5064837;28;20036;-66
2023/09/28 10:27:11;;;;;;;11.23;2.35;;;23.60;61.80;;;;;;5060607;28;20032;-66
2023/09/28 10:29:37;;;;;;;4.00;1.88;;;23.90;61.90;;;;;;5063866;28;20043;-67
2023/09/28 10:32:28;;;;;;;3.63;1.45;;;24.00;60.80;;;;;;5065674;28;20457;-66
2023/09/28 10:35:39;;;;;;;5.55;1.70;;;24.00;60.20;;;;;;5063235;28;20020;-67
2023/09/28 10:38:17;;;;;;;3.63;1.98;;;24.00;60.10;;;;;;5061469;28;20089;-67
2023/09/28 10:41:01;;;;;;;6.72;1.60;;;23.90;60.10;;;;;;5063012;28;20044;-67
2023/09/28 10:43:40;;;;;;;12.77;1.10;;;24.00;59.50;;;;;;5043133;28;20028;-66
2023/09/28 10:46:07;;;;;;;4.70;1.25;;;23.90;59.80;;;;;;5058998;28;20090;-66
2023/09/28 10:48:44;;;;;;;8.82;2.38;;;24.00;59.70;;;;;;5061270;28;20116;-67
2023/09/28 10:51:16;;;;;;;4.65;2.15;;;24.00;59.80;;;;;;5060034;28;20063;-66
2023/09/28 10:53:43;;;;;;;5.10;1.70;;;24.10;59.80;;;;;;5059516;28;20029;-67
2023/09/28 10:56:10;;;;;;;1.23;0.98;;;24.10;60.00;;;;;;5053509;28;20143;-66
2023/09/28 10:58:37;;;;;;;6.18;1.77;;;24.20;60.20;;;;;;5055133;28;20021;-66
2023/09/28 11:01:06;;;;;;;12.52;3.35;;;24.20;59.80;;;;;;5058430;28;20037;-67
2023/09/28 11:03:33;;;;;;;5.55;2.05;;;24.10;59.40;;;;;;5062757;28;20028;-66
2023/09/28 11:06:02;;;;;;;3.58;1.60;;;24.00;60.00;;;;;;5034735;28;20032;-67
2023/09/28 11:08:28;;;;;;;7.82;1.55;;;23.80;60.20;;;;;;5066917;28;20479;-66
2023/09/28 11:10:58;;;;;;;3.75;1.95;;;23.70;60.50;;;;;;5063871;28;20131;-66
2023/09/28 11:13:30;;;;;;;4.10;1.50;;;23.60;59.80;;;;;;5063155;28;20033;-66
2023/09/28 11:15:57;;;;;;;4.65;1.75;;;23.60;60.30;;;;;;5068509;28;20031;-66
2023/09/28 11:18:25;;;;;;;1.67;1.15;;;23.60;60.40;;;;;;5069345;28;20036;-66
2023/09/28 11:20:51;;;;;;;3.70;1.10;;;23.80;60.80;;;;;;5069175;28;20354;-67
2023/09/28 11:23:17;;;;;;;7.45;2.17;;;24.20;60.10;;;;;;5064795;28;20037;-66
2023/09/28 11:25:43;;;;;;;12.10;2.38;;;24.50;60.00;;;;;;5069448;28;20044;-66
2023/09/28 11:28:10;;;;;;;5.68;2.53;;;24.70;58.40;;;;;;5067361;28;21447;-66
2023/09/28 11:30:36;;;;;;;11.25;2.03;;;24.70;58.30;;;;;;5045989;28;20036;-66
2023/09/28 11:33:06;;;;;;;3.33;1.20;;;24.60;57.90;;;;;;5068656;28;20025;-66
2023/09/28 11:35:34;;;;;;;3.17;1.52;;;24.50;58.10;;;;;;5064382;28;20115;-66
2023/09/28 11:38:02;;;;;;;5.00;1.30;;;24.30;58.40;;;;;;5063438;28;20541;-67
2023/09/28 11:40:29;;;;;;;15.32;2.03;;;24.00;58.70;;;;;;5064632;28;20037;-65
2023/09/28 11:42:58;;;;;;;5.07;1.58;;;23.70;59.10;;;;;;5067614;28;20555;-65
2023/09/28 11:45:28;;;;;;;6.38;1.58;;;23.50;59.30;;;;;;5063086;28;20031;-64
2023/09/28 11:47:54;;;;;;;4.93;2.85;;;23.40;59.70;;;;;;5065355;28;20024;-66
2023/09/28 11:50:23;;;;;;;6.15;2.03;;;23.40;60.00;;;;;;5065774;28;20067;-66
2023/09/28 11:52:50;;;;;;;2.22;1.25;;;23.30;60.20;;;;;;5061968;28;20081;-66
2023/09/28 11:55:17;;;;;;;4.15;1.80;;;23.40;60.30;;;;;;5068041;28;20519;-66
2023/09/28 11:57:44;;;;;;;9.05;1.80;;;23.50;60.20;;;;;;5063766;28;20028;-66
2023/09/28 12:00:21;;;;;;;4.43;1.95;;;23.50;59.90;;;;;;5064271;28;20094;-65
2023/09/28 12:02:46;;;;;;;1.83;1.15;;;23.50;60.30;;;;;;5049128;28;20028;-66
2023/09/28 12:05:13;;;;;;;2.53;1.30;;;23.40;60.30;;;;;;5048849;28;20039;-67
2023/09/28 12:07:42;;;;;;;6.10;1.17;;;23.50;60.40;;;;;;5064105;28;20029;-66
2023/09/28 12:10:12;;;;;;;5.22;1.95;;;23.50;60.10;;;;;;5066113;28;20031;-66
2023/09/28 12:12:41;;;;;;;3.72;2.22;;;23.60;60.30;;;;;;5064449;28;20044;-66
2023/09/28 12:15:11;;;;;;;6.68;1.65;;;23.60;60.20;;;;;;5050791;28;20717;-67
2023/09/28 12:17:40;;;;;;;4.57;1.90;;;23.40;60.40;;;;;;5065907;28;20445;-67
2023/09/28 12:20:09;;;;;;;7.78;1.77;;;23.40;60.70;;;;;;5062714;28;20056;-66
2023/09/28 12:22:42;;;;;;;3.30;1.55;;;23.40;60.70;;;;;;5047391;28;20036;-66
2023/09/28 12:25:09;;;;;;;4.90;1.48;;;23.30;60.20;;;;;;5064436;28;20032;-66
2023/09/28 12:27:38;;;;;;;3.72;1.17;;;23.20;60.50;;;;;;5069161;28;20024;-65
2023/09/28 12:30:05;;;;;;;3.70;1.30;;;23.20;61.00;;;;;;5066510;28;20043;-66
2023/09/28 12:32:32;;;;;;;1.83;1.00;;;23.10;60.70;;;;;;5061884;28;20063;-65
2023/09/28 12:35:01;;;;;;;2.05;1.13;;;23.10;61.20;;;;;;5067915;28;20070;-66
2023/09/28 12:37:27;;;;;;;7.07;1.85;;;23.10;61.30;;;;;;5065097;28;20137;-66
2023/09/28 12:39:56;;;;;;;5.45;1.63;;;23.00;60.70;;;;;;5049399;28;20135;-66
2023/09/28 12:42:24;;;;;;;4.13;1.50;;;23.00;60.80;;;;;;5066567;28;20056;-66
2023/09/28 12:44:50;;;;;;;2.70;1.42;;;23.00;60.80;;;;;;5068516;28;20032;-66
2023/09/28 12:47:19;;;;;;;3.63;1.38;;;23.10;61.10;;;;;;5066365;28;20568;-65
2023/09/28 12:49:45;;;;;;;4.13;1.40;;;23.20;60.50;;;;;;5065801;28;20115;-65